createdAt,value
2023-03-17T00:01:39.094Z,9.00
2023-03-17T00:04:13.316Z,8.90
2023-03-17T00:06:41.367Z,8.90
2023-03-17T00:09:14.686Z,8.90
2023-03-17T00:11:42.626Z,8.90
2023-03-17T00:14:09.942Z,8.90
2023-03-17T00:16:39.807Z,8.90
2023-03-17T00:19:14.661Z,8.80
2023-03-17T00:21:42.121Z,8.90
2023-03-17T00:24:14.718Z,8.80
2023-03-17T00:26:43.600Z,8.80
2023-03-17T00:29:10.691Z,8.80
2023-03-17T00:31:39.003Z,8.70
2023-03-17T00:34:11.527Z,8.70
2023-03-17T00:36:38.659Z,8.70
2023-03-17T00:41:39.641Z,8.70
2023-03-17T00:44:06.882Z,8.60
2023-03-17T00:46:38.341Z,8.60
2023-03-17T00:51:45.085Z,8.60
2023-03-17T00:54:13.774Z,8.50
2023-03-17T00:56:41.668Z,8.50
2023-03-17T00:59:20.585Z,8.50
2023-03-17T01:01:48.083Z,8.50
2023-03-17T01:04:18.088Z,8.40
2023-03-17T01:06:48.329Z,8.40
2023-03-17T01:09:16.673Z,8.40
2023-03-17T01:11:44.475Z,8.40
2023-03-17T01:14:17.590Z,8.40
2023-03-17T01:16:44.839Z,8.40
2023-03-17T01:19:13.267Z,8.40
2023-03-17T01:21:42.618Z,8.40
2023-03-17T01:24:10.464Z,8.30
2023-03-17T01:26:37.741Z,8.40
2023-03-17T01:29:04.937Z,8.30
2023-03-17T01:38:57.363Z,8.20
2023-03-17T01:41:24.964Z,8.20
2023-03-17T01:43:51.962Z,8.20
2023-03-17T01:46:25.629Z,8.20
2023-03-17T01:48:59.673Z,8.10
2023-03-17T01:51:32.327Z,8.10
2023-03-17T01:54:06.640Z,8.10
2023-03-17T01:56:35.511Z,8.00
2023-03-17T01:59:07.435Z,8.10
2023-03-17T02:01:37.922Z,8.10
2023-03-17T02:04:06.578Z,8.10
2023-03-17T02:06:56.871Z,8.10
2023-03-17T02:09:27.589Z,8.00
2023-03-17T02:12:00.385Z,8.00
2023-03-17T02:14:28.212Z,8.00
2023-03-17T02:16:56.333Z,8.00
2023-03-17T02:19:24.509Z,7.90
2023-03-17T02:21:53.925Z,7.90
2023-03-17T02:24:28.056Z,7.90
2023-03-17T02:26:59.586Z,7.90
2023-03-17T02:29:27.769Z,7.90
2023-03-17T02:31:55.442Z,7.90
2023-03-17T02:34:22.382Z,7.90
2023-03-17T02:36:49.622Z,7.90
2023-03-17T02:39:18.452Z,7.90
2023-03-17T02:41:45.457Z,7.90
2023-03-17T02:45:25.684Z,7.90
2023-03-17T02:51:35.585Z,7.90
2023-03-17T03:03:21.905Z,7.90
2023-03-17T03:10:53.419Z,7.90
2023-03-17T03:17:17.978Z,7.90
2023-03-17T03:23:55.948Z,7.90
2023-03-17T03:26:22.996Z,7.90
2023-03-17T03:28:50.122Z,7.90
2023-03-17T03:31:17.471Z,7.90
2023-03-17T03:33:46.764Z,8.00
2023-03-17T03:36:13.768Z,7.90
2023-03-17T03:38:41.677Z,7.90
2023-03-17T03:49:56.044Z,7.90
2023-03-17T04:08:07.084Z,8.00
2023-03-17T04:10:34.434Z,8.10
2023-03-17T04:13:01.854Z,8.10
2023-03-17T04:15:29.036Z,8.10
2023-03-17T04:18:06.402Z,8.10
2023-03-17T04:20:33.476Z,8.10
2023-03-17T04:23:01.085Z,8.10
2023-03-17T04:25:29.620Z,8.20
2023-03-17T04:27:56.536Z,8.20
2023-03-17T04:30:25.707Z,8.20
2023-03-17T04:32:52.603Z,8.20
2023-03-17T04:35:24.028Z,8.20
2023-03-17T04:37:51.169Z,8.30
2023-03-17T04:40:19.385Z,8.30
2023-03-17T04:42:47.638Z,8.40
2023-03-17T04:45:15.535Z,8.30
2023-03-17T04:47:42.840Z,8.30
2023-03-17T04:50:11.362Z,8.30
2023-03-17T04:52:41.540Z,8.30
2023-03-17T04:55:09.453Z,8.30
2023-03-17T04:57:37.157Z,8.40
2023-03-17T05:00:22.089Z,8.40
2023-03-17T05:02:49.539Z,8.40
2023-03-17T05:05:16.514Z,8.40
2023-03-17T05:07:44.832Z,8.40
2023-03-17T05:10:13.008Z,8.40
2023-03-17T05:12:39.798Z,8.50
2023-03-17T05:15:09.935Z,8.50
2023-03-17T05:17:36.890Z,8.50
2023-03-17T05:20:04.346Z,8.50
2023-03-17T05:22:31.250Z,8.50
2023-03-17T05:24:58.136Z,8.50
2023-03-17T05:27:25.227Z,8.50
2023-03-17T05:29:52.539Z,8.50
2023-03-17T05:32:21.011Z,8.60
2023-03-17T05:34:48.052Z,8.50
2023-03-17T05:37:16.160Z,8.50
2023-03-17T05:39:43.713Z,8.50
2023-03-17T05:42:11.334Z,8.50
2023-03-17T05:44:38.218Z,8.50
2023-03-17T05:47:05.523Z,8.50
2023-03-17T05:49:33.736Z,8.50
2023-03-17T05:52:00.589Z,8.50
2023-03-17T05:54:27.764Z,8.50
2023-03-17T05:56:54.728Z,8.50
2023-03-17T05:59:22.177Z,8.50
2023-03-17T06:01:49.038Z,8.50
2023-03-17T06:04:17.901Z,8.50
2023-03-17T06:06:46.490Z,8.50
2023-03-17T06:09:13.674Z,8.50
2023-03-17T06:11:41.665Z,8.50
2023-03-17T06:14:11.366Z,8.50
2023-03-17T06:16:38.328Z,8.40
2023-03-17T06:19:06.005Z,8.40
2023-03-17T06:21:33.079Z,8.40
2023-03-17T06:24:01.968Z,8.40
2023-03-17T06:26:29.294Z,8.40
2023-03-17T06:28:56.488Z,8.40
2023-03-17T06:31:24.023Z,8.40
2023-03-17T06:33:50.998Z,8.40
2023-03-17T06:36:18.011Z,8.40
2023-03-17T06:38:46.063Z,8.40
2023-03-17T06:41:15.009Z,8.40
2023-03-17T06:43:42.196Z,8.40
2023-03-17T06:46:09.175Z,8.40
2023-03-17T06:48:36.295Z,8.50
2023-03-17T06:51:03.389Z,8.50
2023-03-17T06:53:30.605Z,8.50
2023-03-17T06:55:58.098Z,8.60
2023-03-17T06:58:28.820Z,8.60
2023-03-17T07:00:56.557Z,8.70
2023-03-17T07:03:24.205Z,8.80
2023-03-17T07:05:51.647Z,8.90
2023-03-17T07:08:19.482Z,8.90
2023-03-17T07:10:46.349Z,8.90
2023-03-17T07:13:13.731Z,9.00
2023-03-17T07:15:42.888Z,9.00
2023-03-17T07:18:09.714Z,9.00
2023-03-17T07:20:36.834Z,9.10
2023-03-17T07:23:03.730Z,9.20
2023-03-17T07:25:31.233Z,9.20
2023-03-17T07:27:59.346Z,9.30
2023-03-17T07:30:26.765Z,9.40
2023-03-17T07:32:55.225Z,9.40
2023-03-17T07:35:22.260Z,9.50
2023-03-17T07:37:49.740Z,9.60
2023-03-17T07:40:18.626Z,9.60
2023-03-17T07:42:45.793Z,9.70
2023-03-17T07:45:12.937Z,9.80
2023-03-17T07:47:40.472Z,9.80
2023-03-17T07:50:10.755Z,9.90
2023-03-17T07:52:37.968Z,10.00
2023-03-17T07:55:08.427Z,10.10
2023-03-17T07:57:35.851Z,10.30
2023-03-17T08:00:04.188Z,10.40
2023-03-17T08:02:31.850Z,10.60
2023-03-17T08:04:59.043Z,10.90
2023-03-17T08:07:27.470Z,11.20
2023-03-17T08:10:05.045Z,11.40
2023-03-17T08:12:35.071Z,11.50
2023-03-17T08:15:01.980Z,11.80
2023-03-17T08:17:28.877Z,12.10
2023-03-17T08:19:56.576Z,12.30
2023-03-17T08:22:24.783Z,12.50
2023-03-17T08:24:54.881Z,12.60
2023-03-17T08:27:22.253Z,12.80
2023-03-17T08:29:51.158Z,12.90
2023-03-17T08:32:18.483Z,13.10
2023-03-17T08:34:46.302Z,13.10
2023-03-17T08:37:13.365Z,13.20
2023-03-17T08:39:40.543Z,13.50
2023-03-17T08:42:08.956Z,13.70
2023-03-17T08:44:36.229Z,13.80
2023-03-17T08:47:06.073Z,13.90
2023-03-17T08:49:34.989Z,13.90
2023-03-17T08:54:45.337Z,13.90
2023-03-17T08:57:26.452Z,13.90
2023-03-17T08:59:53.700Z,13.90
2023-03-17T09:02:21.356Z,14.00
2023-03-17T09:04:48.287Z,14.20
2023-03-17T09:07:15.394Z,14.30
2023-03-17T09:09:42.479Z,14.40
2023-03-17T09:12:11.075Z,14.40
2023-03-17T09:14:44.105Z,14.30
2023-03-17T09:17:13.874Z,14.40
2023-03-17T09:19:41.570Z,14.50
2023-03-17T09:22:13.593Z,14.70
2023-03-17T09:24:40.663Z,14.80
2023-03-17T09:27:08.050Z,14.90
2023-03-17T09:29:34.966Z,14.90
2023-03-17T09:32:08.949Z,15.10
2023-03-17T09:34:39.237Z,15.40
2023-03-17T09:37:06.829Z,15.60
2023-03-17T09:39:34.919Z,15.80
2023-03-17T09:42:16.670Z,16.00
2023-03-17T09:45:01.697Z,16.20
2023-03-17T09:48:17.807Z,16.40
2023-03-17T09:50:48.900Z,16.50
2023-03-17T09:53:19.595Z,16.90
2023-03-17T09:55:50.216Z,17.20
2023-03-17T09:58:21.440Z,17.40
2023-03-17T10:00:49.009Z,17.50
2023-03-17T10:03:18.433Z,17.30
2023-03-17T10:06:02.273Z,17.10
2023-03-17T10:08:33.955Z,16.70
2023-03-17T10:11:11.102Z,16.60
2023-03-17T10:13:56.012Z,16.50
2023-03-17T10:16:39.220Z,16.60
2023-03-17T10:19:19.466Z,16.80
2023-03-17T10:22:04.736Z,17.20
2023-03-17T10:24:33.312Z,17.60
2023-03-17T10:27:08.575Z,17.70
2023-03-17T10:29:36.092Z,17.60
2023-03-17T10:32:04.187Z,17.50
2023-03-17T10:34:36.668Z,17.40
2023-03-17T10:37:07.345Z,17.50
2023-03-17T10:39:44.643Z,17.90
2023-03-17T10:42:19.628Z,18.10
2023-03-17T10:44:52.244Z,18.20
2023-03-17T10:47:24.648Z,18.10
2023-03-17T10:49:54.985Z,17.90
2023-03-17T10:52:27.437Z,17.80
2023-03-17T10:54:55.241Z,17.80
2023-03-17T10:57:22.955Z,17.90
2023-03-17T10:59:54.545Z,17.90
2023-03-17T11:02:26.865Z,17.90
2023-03-17T11:05:00.711Z,17.90
2023-03-17T11:07:33.634Z,17.90
2023-03-17T11:10:03.099Z,17.80
2023-03-17T11:12:36.880Z,17.60
2023-03-17T11:15:06.487Z,17.60
2023-03-17T11:17:45.511Z,17.50
2023-03-17T11:20:46.072Z,17.40
2023-03-17T11:23:23.638Z,17.40
2023-03-17T11:25:58.677Z,17.40
2023-03-17T11:28:33.236Z,17.60
2023-03-17T11:31:11.406Z,17.90
2023-03-17T11:33:47.292Z,18.30
2023-03-17T11:36:30.434Z,18.70
2023-03-17T11:39:00.719Z,19.30
2023-03-17T11:41:46.199Z,19.60
2023-03-17T11:44:42.285Z,19.60
2023-03-17T11:47:18.238Z,19.60
2023-03-17T11:49:53.936Z,19.50
2023-03-17T11:52:28.538Z,19.50
2023-03-17T11:55:02.455Z,19.20
2023-03-17T11:57:34.144Z,18.90
2023-03-17T12:00:04.848Z,18.90
2023-03-17T12:02:39.409Z,18.90
2023-03-17T12:05:09.910Z,18.90
2023-03-17T12:07:44.826Z,19.20
2023-03-17T12:10:21.824Z,19.30
2023-03-17T12:12:53.492Z,19.60
2023-03-17T12:15:29.285Z,19.90
2023-03-17T12:18:04.240Z,19.90
2023-03-17T12:20:37.710Z,19.90
2023-03-17T12:23:17.692Z,19.90
2023-03-17T12:25:51.208Z,19.60
2023-03-17T12:28:27.131Z,19.40
2023-03-17T12:31:01.245Z,19.30
2023-03-17T12:33:36.586Z,19.30
2023-03-17T12:36:05.101Z,19.40
2023-03-17T12:38:38.051Z,19.50
2023-03-17T12:41:24.703Z,19.50
2023-03-17T12:44:02.933Z,19.60
2023-03-17T12:47:01.871Z,19.40
2023-03-17T12:50:05.795Z,19.00
2023-03-17T12:53:09.248Z,18.50
2023-03-17T12:55:38.120Z,18.20
2023-03-17T12:58:15.556Z,18.20
2023-03-17T13:00:50.650Z,18.30
2023-03-17T13:03:23.776Z,18.40
2023-03-17T13:05:55.314Z,18.40
2023-03-17T13:08:25.748Z,18.30
2023-03-17T13:11:15.332Z,18.10
2023-03-17T13:13:54.935Z,18.00
2023-03-17T13:16:32.020Z,18.00
2023-03-17T13:19:20.130Z,17.90
2023-03-17T13:21:52.550Z,17.80
2023-03-17T13:24:36.512Z,17.70
2023-03-17T13:27:10.148Z,17.80
2023-03-17T13:29:47.467Z,17.90
2023-03-17T13:32:39.061Z,18.10
2023-03-17T13:35:18.753Z,18.20
2023-03-17T13:38:14.823Z,18.20
2023-03-17T13:40:53.234Z,18.10
2023-03-17T13:43:41.828Z,17.90
2023-03-17T13:46:22.198Z,17.80
2023-03-17T13:48:49.475Z,17.80
2023-03-17T13:51:24.926Z,17.90
2023-03-17T13:53:55.350Z,17.90
2023-03-17T13:56:25.573Z,18.10
2023-03-17T13:59:05.406Z,18.10
2023-03-17T14:01:39.160Z,18.20
2023-03-17T14:04:12.511Z,18.00
2023-03-17T14:06:40.455Z,17.90
2023-03-17T14:09:16.504Z,17.90
2023-03-17T14:11:47.581Z,18.10
2023-03-17T14:14:32.564Z,18.40
2023-03-17T14:17:07.101Z,18.60
2023-03-17T14:19:34.721Z,18.60
2023-03-17T14:22:20.361Z,18.70
2023-03-17T14:24:52.021Z,18.70
2023-03-17T14:27:20.251Z,18.60
2023-03-17T14:29:48.727Z,18.40
2023-03-17T14:32:20.320Z,18.40
2023-03-17T14:34:57.349Z,18.50
2023-03-17T14:37:28.544Z,18.60
2023-03-17T14:40:04.280Z,18.70
2023-03-17T14:42:32.103Z,18.90
2023-03-17T14:47:56.021Z,19.10
2023-03-17T14:50:33.583Z,19.20
2023-03-17T14:53:01.718Z,19.40
2023-03-17T14:55:36.543Z,19.50
2023-03-17T14:58:09.058Z,19.60
2023-03-17T15:00:46.006Z,19.60
2023-03-17T15:03:23.194Z,19.60
2023-03-17T15:05:50.832Z,19.70
2023-03-17T15:08:44.051Z,19.70
2023-03-17T15:11:24.162Z,19.50
2023-03-17T15:13:56.022Z,19.50
2023-03-17T15:16:31.559Z,19.40
2023-03-17T15:19:05.995Z,19.40
2023-03-17T15:21:35.647Z,19.40
2023-03-17T15:24:32.883Z,19.40
2023-03-17T15:27:02.726Z,19.30
2023-03-17T15:29:30.046Z,19.20
2023-03-17T15:32:07.239Z,19.10
2023-03-17T15:34:34.172Z,19.00
2023-03-17T15:37:04.360Z,18.90
2023-03-17T15:39:31.706Z,18.90
2023-03-17T15:42:00.746Z,18.70
2023-03-17T15:44:27.943Z,18.50
2023-03-17T15:46:54.762Z,18.40
2023-03-17T15:49:26.840Z,18.40
2023-03-17T15:51:54.179Z,18.30
2023-03-17T15:54:21.839Z,18.30
2023-03-17T15:56:58.098Z,18.30
2023-03-17T15:59:25.155Z,18.30
2023-03-17T16:02:30.863Z,18.20
2023-03-17T16:05:01.350Z,18.20
2023-03-17T16:07:30.774Z,18.20
2023-03-17T16:09:58.423Z,18.10
2023-03-17T16:12:25.538Z,18.00
2023-03-17T16:14:58.831Z,18.00
2023-03-17T16:17:29.506Z,17.90
2023-03-17T16:20:06.272Z,17.90
2023-03-17T16:26:25.633Z,17.80
2023-03-17T16:28:55.470Z,17.70
2023-03-17T16:31:25.464Z,17.60
2023-03-17T16:33:53.728Z,17.60
2023-03-17T16:36:22.556Z,17.60
2023-03-17T16:38:54.529Z,17.50
2023-03-17T16:41:23.803Z,17.50
2023-03-17T16:43:58.449Z,17.40
2023-03-17T16:46:31.720Z,17.40
2023-03-17T16:49:01.843Z,17.40
2023-03-17T16:51:31.248Z,17.40
2023-03-17T16:53:58.116Z,17.40
2023-03-17T16:56:27.550Z,17.30
2023-03-17T16:58:55.882Z,17.20
2023-03-17T17:01:26.050Z,17.20
2023-03-17T17:03:53.645Z,17.20
2023-03-17T17:06:22.781Z,17.20
2023-03-17T17:08:51.191Z,17.10
2023-03-17T17:11:20.350Z,17.10
2023-03-17T17:13:55.801Z,17.00
2023-03-17T17:16:26.651Z,16.90
2023-03-17T17:18:53.789Z,16.90
2023-03-17T17:21:21.354Z,16.90
2023-03-17T17:23:48.644Z,16.90
2023-03-17T17:26:15.764Z,16.80
2023-03-17T17:28:42.904Z,16.70
2023-03-17T17:31:11.679Z,16.70
2023-03-17T17:33:47.770Z,16.60
2023-03-17T17:36:16.980Z,16.60
2023-03-17T17:38:44.905Z,16.50
2023-03-17T17:41:13.363Z,16.50
2023-03-17T17:43:40.406Z,16.40
2023-03-17T17:46:17.925Z,16.40
2023-03-17T17:48:45.286Z,16.40
2023-03-17T17:51:12.250Z,16.30
2023-03-17T17:53:39.428Z,16.30
2023-03-17T17:56:07.154Z,16.20
2023-03-17T17:58:34.069Z,16.20
2023-03-17T18:01:01.023Z,16.10
2023-03-17T18:03:31.974Z,16.10
2023-03-17T18:05:59.687Z,16.00
2023-03-17T18:08:26.767Z,16.00
2023-03-17T18:10:55.654Z,16.00
2023-03-17T18:13:24.617Z,16.00
2023-03-17T18:15:52.350Z,15.90
2023-03-17T18:18:19.118Z,15.90
2023-03-17T18:20:49.766Z,15.90
2023-03-17T18:23:20.193Z,15.90
2023-03-17T18:25:47.284Z,15.90
2023-03-17T18:28:14.198Z,15.90
2023-03-17T18:30:43.226Z,15.80
2023-03-17T18:33:16.401Z,15.80
2023-03-17T18:35:46.050Z,15.80
2023-03-17T18:38:14.376Z,15.70
2023-03-17T18:40:41.880Z,15.70
2023-03-17T18:43:08.844Z,15.60
2023-03-17T18:45:36.014Z,15.60
2023-03-17T18:48:03.055Z,15.60
2023-03-17T18:50:30.325Z,15.50
2023-03-17T18:52:57.516Z,15.50
2023-03-17T18:55:25.888Z,15.50
2023-03-17T18:57:54.549Z,15.40
2023-03-17T19:00:22.094Z,15.40
2023-03-17T19:02:49.133Z,15.40
2023-03-17T19:05:16.204Z,15.40
2023-03-17T19:07:43.387Z,15.30
2023-03-17T19:10:12.449Z,15.30
2023-03-17T19:12:41.354Z,15.30
2023-03-17T19:15:10.703Z,15.30
2023-03-17T19:17:37.978Z,15.30
2023-03-17T19:20:06.123Z,15.30
2023-03-17T19:22:33.972Z,15.30
2023-03-17T19:25:01.417Z,15.30
2023-03-17T19:27:28.484Z,15.20
2023-03-17T19:29:56.872Z,15.20
2023-03-17T19:32:23.824Z,15.20
2023-03-17T19:34:50.897Z,15.20
2023-03-17T19:37:17.841Z,15.20
2023-03-17T19:39:45.033Z,15.10
2023-03-17T19:42:12.900Z,15.00
2023-03-17T19:44:43.574Z,15.00
2023-03-17T19:47:11.945Z,15.00
2023-03-17T19:49:39.115Z,15.00
2023-03-17T19:52:07.585Z,15.00
2023-03-17T19:54:34.890Z,15.00
2023-03-17T19:57:02.309Z,15.00
2023-03-17T19:59:29.177Z,15.00
2023-03-17T20:01:56.226Z,15.00
2023-03-17T20:04:24.610Z,15.00
2023-03-17T20:06:55.523Z,15.00
2023-03-17T20:09:23.122Z,15.00
2023-03-17T20:11:51.348Z,15.00
2023-03-17T20:14:19.833Z,15.00
2023-03-17T20:16:47.763Z,15.00
2023-03-17T20:19:14.823Z,15.00
2023-03-17T20:21:43.679Z,15.00
2023-03-17T20:24:12.824Z,15.00
2023-03-17T20:26:43.189Z,15.00
2023-03-17T20:29:14.214Z,15.00
2023-03-17T20:31:42.131Z,14.90
2023-03-17T20:34:10.548Z,14.90
2023-03-17T20:36:42.114Z,14.90
2023-03-17T20:39:14.772Z,14.90
2023-03-17T20:41:42.603Z,14.80
2023-03-17T20:44:09.751Z,14.70
2023-03-17T20:46:36.846Z,14.70
2023-03-17T20:49:05.605Z,14.70
2023-03-17T20:51:34.001Z,14.60
2023-03-17T20:54:01.463Z,14.60
2023-03-17T20:56:34.368Z,14.60
2023-03-17T20:59:04.932Z,14.60
2023-03-17T21:01:33.282Z,14.60
2023-03-17T21:04:00.575Z,14.50
2023-03-17T21:06:30.349Z,14.50
2023-03-17T21:08:57.720Z,14.50
2023-03-17T21:11:26.557Z,14.40
2023-03-17T21:13:55.469Z,14.40
2023-03-17T21:16:24.799Z,14.40
2023-03-17T21:18:52.602Z,14.40
2023-03-17T21:21:20.489Z,14.30
2023-03-17T21:23:47.669Z,14.30
2023-03-17T21:26:15.303Z,14.30
2023-03-17T21:28:42.853Z,14.30
2023-03-17T21:31:12.412Z,14.30
2023-03-17T21:33:39.724Z,14.30
2023-03-17T21:36:10.334Z,14.30
2023-03-17T21:38:37.618Z,14.20
2023-03-17T21:41:21.306Z,14.20
2023-03-17T21:43:48.578Z,14.20
2023-03-17T21:46:17.149Z,14.20
2023-03-17T21:48:46.936Z,14.10
2023-03-17T21:51:16.829Z,14.10
2023-03-17T21:53:44.649Z,14.10
2023-03-17T21:56:14.714Z,14.10
2023-03-17T21:58:41.654Z,14.10
2023-03-17T22:01:09.179Z,14.00
2023-03-17T22:03:39.563Z,14.00
2023-03-17T22:06:07.698Z,14.00
2023-03-17T22:08:34.960Z,14.00
2023-03-17T22:11:06.228Z,14.00
2023-03-17T22:13:33.345Z,13.90
2023-03-17T22:16:00.293Z,13.90
2023-03-17T22:18:27.565Z,13.90
2023-03-17T22:20:56.534Z,13.90
2023-03-17T22:23:23.815Z,13.80
2023-03-17T22:25:51.025Z,13.80
2023-03-17T22:28:18.683Z,13.80
2023-03-17T22:30:46.071Z,13.80
2023-03-17T22:33:13.686Z,13.70
2023-03-17T22:35:40.826Z,13.70
2023-03-17T22:38:18.788Z,13.70
2023-03-17T22:40:46.342Z,13.60
2023-03-17T22:43:13.423Z,13.60
2023-03-17T22:45:42.425Z,13.50
2023-03-17T22:48:10.892Z,13.50
2023-03-17T22:50:37.978Z,13.40
2023-03-17T22:53:09.101Z,13.40
2023-03-17T22:55:36.452Z,13.40
2023-03-17T22:58:03.543Z,13.40
2023-03-17T23:00:32.397Z,13.40
2023-03-17T23:02:59.613Z,13.30
2023-03-17T23:05:26.689Z,13.20
2023-03-17T23:07:53.938Z,13.20
2023-03-17T23:10:25.852Z,13.00
2023-03-17T23:12:53.094Z,13.00
2023-03-17T23:15:20.910Z,12.90
2023-03-17T23:17:48.254Z,12.80
2023-03-17T23:20:24.361Z,12.80
2023-03-17T23:22:53.162Z,12.70
2023-03-17T23:25:21.515Z,12.70
2023-03-17T23:27:50.085Z,12.60
2023-03-17T23:30:17.911Z,12.50
2023-03-17T23:32:45.653Z,12.40
2023-03-17T23:35:13.724Z,12.40
2023-03-17T23:37:43.664Z,12.40
2023-03-17T23:40:15.623Z,12.30
2023-03-17T23:42:43.177Z,12.30
2023-03-17T23:45:12.225Z,12.20
2023-03-17T23:47:39.275Z,12.10
2023-03-17T23:50:07.697Z,12.10
2023-03-17T23:52:34.726Z,12.00
2023-03-17T23:55:02.216Z,12.00
2023-03-17T23:57:29.528Z,11.90
2023-03-17T23:59:57.232Z,11.90
